createdAt,value
2018-11-10T00:01:09.623Z,21.80
2018-11-10T00:03:41.687Z,22.17
2018-11-10T00:06:13.522Z,17.70
2018-11-10T00:08:44.279Z,21.70
2018-11-10T00:11:14.714Z,16.83
2018-11-10T00:13:51.711Z,20.77
2018-11-10T00:16:22.157Z,17.70
2018-11-10T00:18:52.739Z,18.13
2018-11-10T00:21:23.587Z,17.70
2018-11-10T00:23:53.823Z,15.93
2018-11-10T00:26:25.798Z,18.20
2018-11-10T00:28:55.825Z,23.00
2018-11-10T00:31:25.824Z,19.90
2018-11-10T00:33:55.991Z,14.43
2018-11-10T00:36:26.831Z,15.87
2018-11-10T00:38:56.822Z,16.67
2018-11-10T00:41:27.858Z,14.37
2018-11-10T00:43:57.790Z,16.90
2018-11-10T00:46:28.915Z,17.33
2018-11-10T00:48:58.925Z,20.77
2018-11-10T00:51:29.934Z,15.63
2018-11-10T00:54:01.088Z,17.20
2018-11-10T00:56:30.870Z,14.80
2018-11-10T00:59:01.780Z,13.10
2018-11-10T01:01:37.854Z,18.00
2018-11-10T01:04:09.925Z,13.30
2018-11-10T01:06:41.719Z,14.23
2018-11-10T01:09:12.255Z,14.20
2018-11-10T01:11:42.538Z,12.80
2018-11-10T01:14:13.390Z,11.13
2018-11-10T01:16:43.762Z,10.77
2018-11-10T01:19:13.954Z,11.13
2018-11-10T01:21:44.934Z,13.67
2018-11-10T01:24:15.636Z,11.00
2018-11-10T01:26:44.988Z,11.87
2018-11-10T01:29:16.782Z,10.30
2018-11-10T01:31:47.449Z,8.60
2018-11-10T01:34:21.019Z,12.30
2018-11-10T01:36:52.162Z,11.40
2018-11-10T01:39:22.045Z,9.20
2018-11-10T01:41:53.034Z,11.03
2018-11-10T01:44:26.930Z,11.50
2018-11-10T01:46:57.466Z,10.00
2018-11-10T01:49:28.151Z,10.27
2018-11-10T01:51:59.383Z,10.23
2018-11-10T01:54:29.052Z,9.30
2018-11-10T01:57:00.156Z,12.77
2018-11-10T01:59:30.252Z,10.17
2018-11-10T02:02:01.183Z,8.43
2018-11-10T02:04:31.149Z,10.73
2018-11-10T02:07:02.319Z,11.10
2018-11-10T02:09:32.300Z,10.40
2018-11-10T02:12:04.414Z,9.47
2018-11-10T02:14:35.146Z,11.07
2018-11-10T02:17:07.247Z,10.67
2018-11-10T02:19:38.550Z,8.43
2018-11-10T02:22:08.339Z,11.47
2018-11-10T02:24:38.389Z,13.80
2018-11-10T02:27:14.456Z,12.13
2018-11-10T02:29:44.762Z,9.60
2018-11-10T02:32:16.361Z,10.20
2018-11-10T02:34:47.146Z,10.20
2018-11-10T02:37:17.321Z,11.50
2018-11-10T02:39:47.383Z,9.50
2018-11-10T02:42:18.206Z,10.60
2018-11-10T02:44:49.538Z,11.03
2018-11-10T02:47:20.290Z,11.03
2018-11-10T02:49:50.326Z,11.53
2018-11-10T02:52:21.314Z,12.37
2018-11-10T02:54:52.411Z,11.00
2018-11-10T02:57:23.322Z,9.47
2018-11-10T02:59:53.390Z,12.20
2018-11-10T03:02:24.453Z,12.70
2018-11-10T03:04:55.508Z,11.37
2018-11-10T03:07:25.503Z,12.30
2018-11-10T03:09:56.619Z,9.70
2018-11-10T03:12:26.615Z,14.17
2018-11-10T03:14:57.411Z,12.50
2018-11-10T03:17:27.478Z,13.63
2018-11-10T03:19:58.380Z,15.30
2018-11-10T03:22:28.917Z,14.60
2018-11-10T03:24:59.314Z,16.27
2018-11-10T03:27:32.585Z,18.40
2018-11-10T03:30:03.427Z,17.30
2018-11-10T03:32:34.698Z,14.97
2018-11-10T03:35:07.562Z,13.37
2018-11-10T03:37:38.326Z,16.63
2018-11-10T03:40:09.952Z,20.27
2018-11-10T03:42:41.734Z,20.30
2018-11-10T03:45:13.265Z,23.10
2018-11-10T03:47:49.594Z,24.40
2018-11-10T03:50:19.633Z,20.27
2018-11-10T03:52:50.603Z,19.50
2018-11-10T03:55:21.483Z,16.80
2018-11-10T03:57:52.102Z,16.53
2018-11-10T04:00:22.698Z,12.77
2018-11-10T04:02:53.559Z,14.33
2018-11-10T04:05:23.654Z,14.07
2018-11-10T04:07:54.729Z,15.87
2018-11-10T04:10:25.653Z,15.80
2018-11-10T04:12:55.803Z,17.70
2018-11-10T04:15:26.749Z,18.67
2018-11-10T04:17:57.754Z,15.17
2018-11-10T04:20:27.880Z,15.50
2018-11-10T04:22:58.932Z,17.50
2018-11-10T04:25:29.690Z,16.90
2018-11-10T04:27:59.910Z,15.80
2018-11-10T04:30:30.634Z,14.37
2018-11-10T04:33:03.770Z,11.40
2018-11-10T04:35:34.801Z,11.33
2018-11-10T04:38:05.990Z,12.30
2018-11-10T04:40:38.255Z,12.20
2018-11-10T04:43:09.873Z,9.37
2018-11-10T04:45:39.192Z,8.17
2018-11-10T04:48:10.813Z,11.20
2018-11-10T04:50:49.578Z,10.90
2018-11-10T04:53:22.659Z,10.87
2018-11-10T04:55:56.674Z,7.00
2018-11-10T04:58:27.922Z,9.80
2018-11-10T05:00:58.378Z,9.47
2018-11-10T05:03:28.874Z,8.33
2018-11-10T05:06:02.832Z,8.43
2018-11-10T05:08:32.887Z,8.03
2018-11-10T05:11:04.998Z,9.77
2018-11-10T05:13:35.100Z,9.23
2018-11-10T05:16:06.566Z,9.47
2018-11-10T05:18:35.927Z,10.60
2018-11-10T05:21:09.933Z,8.27
2018-11-10T05:23:39.327Z,8.60
2018-11-10T05:26:11.072Z,10.07
2018-11-10T05:28:42.615Z,13.80
2018-11-10T05:31:13.311Z,13.23
2018-11-10T05:33:45.210Z,12.47
2018-11-10T05:36:17.153Z,10.97
2018-11-10T05:38:47.626Z,10.30
2018-11-10T05:41:18.102Z,10.37
2018-11-10T05:43:48.098Z,8.47
2018-11-10T05:46:19.122Z,9.00
2018-11-10T05:48:49.491Z,11.50
2018-11-10T05:51:20.259Z,7.87
2018-11-10T05:53:50.540Z,10.03
2018-11-10T05:56:21.348Z,9.13
2018-11-10T05:58:51.274Z,11.07
2018-11-10T06:01:22.195Z,9.23
2018-11-10T06:03:52.857Z,8.40
2018-11-10T06:06:23.386Z,9.50
2018-11-10T06:08:53.994Z,7.87
2018-11-10T06:11:27.516Z,6.60
2018-11-10T06:13:58.123Z,9.53
2018-11-10T06:16:29.300Z,8.60
2018-11-10T06:18:59.550Z,6.07
2018-11-10T06:21:30.543Z,11.30
2018-11-10T06:24:01.358Z,11.20
2018-11-10T06:26:31.111Z,12.07
2018-11-10T06:29:02.382Z,11.97
2018-11-10T06:31:33.633Z,14.67
2018-11-10T06:34:03.761Z,7.93
2018-11-10T06:36:34.310Z,8.83
2018-11-10T06:39:10.003Z,11.47
2018-11-10T06:41:39.355Z,11.50
2018-11-10T06:44:15.212Z,9.07
2018-11-10T06:46:48.202Z,13.13
2018-11-10T06:49:19.391Z,11.60
2018-11-10T06:51:49.578Z,14.03
2018-11-10T06:54:21.111Z,12.50
2018-11-10T06:56:51.594Z,20.13
2018-11-10T06:59:22.034Z,14.97
2018-11-10T07:01:52.410Z,18.67
2018-11-10T07:04:23.170Z,17.17
2018-11-10T07:07:02.779Z,13.27
2018-11-10T07:09:33.577Z,14.23
2018-11-10T07:12:03.766Z,10.40
2018-11-10T07:14:34.607Z,9.93
2018-11-10T07:17:04.719Z,11.70
2018-11-10T07:19:35.487Z,12.37
2018-11-10T07:22:05.550Z,15.13
2018-11-10T07:24:36.652Z,17.43
2018-11-10T07:27:09.094Z,18.53
2018-11-10T07:29:38.722Z,14.30
2018-11-10T07:32:10.660Z,15.07
2018-11-10T07:34:42.752Z,15.87
2018-11-10T07:37:12.672Z,20.33
2018-11-10T07:39:42.636Z,18.77
2018-11-10T07:42:13.758Z,21.47
2018-11-10T07:44:45.738Z,19.10
2018-11-10T07:47:18.459Z,23.40
2018-11-10T07:49:51.449Z,24.90
2018-11-10T07:52:22.663Z,23.37
2018-11-10T07:54:53.994Z,27.33
2018-11-10T07:57:24.727Z,40.90
2018-11-10T07:59:54.686Z,35.93
2018-11-10T08:02:25.666Z,54.13
2018-11-10T08:04:55.627Z,57.93
2018-11-10T08:07:26.890Z,56.27
2018-11-10T08:09:57.603Z,61.23
2018-11-10T08:12:27.861Z,62.90
2018-11-10T08:14:58.650Z,66.30
2018-11-10T08:17:33.909Z,70.80
2018-11-10T08:20:05.218Z,66.00
2018-11-10T08:22:34.975Z,66.80
2018-11-10T08:25:07.733Z,54.53
2018-11-10T08:27:38.975Z,62.83
2018-11-10T08:30:11.902Z,65.73
2018-11-10T08:32:42.512Z,60.03
2018-11-10T08:35:14.730Z,57.70
2018-11-10T08:37:44.342Z,84.87
2018-11-10T08:40:16.077Z,111.33
2018-11-10T08:42:45.610Z,70.50
2018-11-10T08:45:16.535Z,59.63
2018-11-10T08:47:46.760Z,47.50
2018-11-10T08:50:17.598Z,47.60
2018-11-10T08:52:53.840Z,46.00
2018-11-10T08:55:26.807Z,48.33
2018-11-10T08:57:57.922Z,46.87
2018-11-10T09:00:28.059Z,52.23
2018-11-10T09:02:58.065Z,52.07
2018-11-10T09:05:29.035Z,48.60
2018-11-10T09:07:59.959Z,52.00
2018-11-10T09:10:30.754Z,45.77
2018-11-10T09:13:01.039Z,48.13
2018-11-10T09:15:31.020Z,51.93
2018-11-10T09:18:02.998Z,47.37
2018-11-10T09:20:35.162Z,45.03
2018-11-10T09:23:06.164Z,47.77
2018-11-10T09:25:36.059Z,50.17
2018-11-10T09:28:06.443Z,59.47
2018-11-10T09:30:37.254Z,44.83
2018-11-10T09:33:08.219Z,43.80
2018-11-10T09:35:38.087Z,47.63
2018-11-10T09:38:10.846Z,45.83
2018-11-10T09:41:01.091Z,49.03
2018-11-10T09:43:33.211Z,50.20
2018-11-10T09:46:04.804Z,41.50
2018-11-10T09:48:34.219Z,46.93
2018-11-10T09:51:04.562Z,57.20
2018-11-10T09:53:33.979Z,64.30
2018-11-10T09:56:11.310Z,50.73
2018-11-10T09:58:42.196Z,49.20
2018-11-10T10:01:11.839Z,40.43
2018-11-10T10:03:41.201Z,39.07
2018-11-10T10:06:13.456Z,39.50
2018-11-10T10:08:45.566Z,52.27
2018-11-10T10:11:16.408Z,45.07
2018-11-10T10:13:48.072Z,47.43
2018-11-10T10:16:18.183Z,43.63
2018-11-10T10:18:48.827Z,42.27
2018-11-10T10:21:19.206Z,41.13
2018-11-10T10:23:49.718Z,39.00
2018-11-10T10:26:20.317Z,43.80
2018-11-10T10:28:50.858Z,31.90
2018-11-10T10:31:21.274Z,38.00
2018-11-10T10:33:54.711Z,28.53
2018-11-10T10:36:25.323Z,34.40
2018-11-10T10:39:02.462Z,36.67
2018-11-10T10:41:35.619Z,27.53
2018-11-10T10:44:09.440Z,32.80
2018-11-10T10:46:38.934Z,29.40
2018-11-10T10:49:10.741Z,35.63
2018-11-10T10:51:43.419Z,33.07
2018-11-10T10:54:13.088Z,27.30
2018-11-10T10:56:45.351Z,36.03
2018-11-10T10:59:15.480Z,27.83
2018-11-10T11:01:52.236Z,30.70
2018-11-10T11:04:36.585Z,30.00
2018-11-10T11:07:07.606Z,28.10
2018-11-10T11:09:44.157Z,32.37
2018-11-10T11:15:13.758Z,22.67
2018-11-10T11:17:48.473Z,27.23
2018-11-10T11:20:21.666Z,32.57
2018-11-10T11:22:51.606Z,27.90
2018-11-10T11:25:22.668Z,25.17
2018-11-10T11:27:52.618Z,29.80
2018-11-10T11:30:23.716Z,25.57
2018-11-10T11:32:53.661Z,26.67
2018-11-10T11:35:23.642Z,25.00
2018-11-10T11:37:57.378Z,25.47
2018-11-10T11:40:28.624Z,23.33
2018-11-10T11:42:58.771Z,23.57
2018-11-10T11:45:28.685Z,21.17
2018-11-10T11:47:59.715Z,25.03
2018-11-10T11:50:29.622Z,21.20
2018-11-10T11:53:03.662Z,26.13
2018-11-10T11:55:35.712Z,25.03
2018-11-10T11:58:07.027Z,24.07
2018-11-10T12:00:37.917Z,25.43
2018-11-10T12:03:08.944Z,24.10
2018-11-10T12:05:42.667Z,27.10
2018-11-10T12:08:15.726Z,25.97
2018-11-10T12:10:48.495Z,22.73
2018-11-10T12:13:21.755Z,21.93
2018-11-10T12:15:56.169Z,23.70
2018-11-10T12:18:27.123Z,22.33
2018-11-10T12:20:57.638Z,22.97
2018-11-10T12:23:31.863Z,19.73
2018-11-10T12:26:02.023Z,22.83
2018-11-10T12:28:31.938Z,21.20
2018-11-10T12:31:06.142Z,24.73
2018-11-10T12:33:36.986Z,20.30
2018-11-10T12:36:07.939Z,18.70
2018-11-10T12:38:37.881Z,19.83
2018-11-10T12:41:07.995Z,22.53
2018-11-10T12:43:37.828Z,22.83
2018-11-10T12:46:08.003Z,19.27
2018-11-10T12:48:39.309Z,17.43
2018-11-10T12:51:09.606Z,16.97
2018-11-10T12:53:39.124Z,16.33
2018-11-10T12:56:09.655Z,17.53
2018-11-10T12:58:39.239Z,26.77
2018-11-10T13:01:08.990Z,23.17
2018-11-10T13:03:39.190Z,22.80
2018-11-10T13:06:09.018Z,22.40
2018-11-10T13:08:39.310Z,20.90
2018-11-10T13:11:11.466Z,22.97
2018-11-10T13:13:43.346Z,24.37
2018-11-10T13:16:14.122Z,28.23
2018-11-10T13:18:43.500Z,23.73
2018-11-10T13:21:15.993Z,25.73
2018-11-10T13:23:49.060Z,30.10
2018-11-10T13:26:19.118Z,25.67
2018-11-10T13:28:54.107Z,31.37
2018-11-10T13:31:24.403Z,24.03
2018-11-10T13:33:56.260Z,23.53
2018-11-10T13:36:26.794Z,26.17
2018-11-10T13:38:57.247Z,22.73
2018-11-10T13:41:27.955Z,38.40
2018-11-10T13:43:58.265Z,40.40
2018-11-10T13:46:33.922Z,41.97
2018-11-10T13:49:05.668Z,37.90
2018-11-10T13:51:36.499Z,34.10
2018-11-10T13:54:07.751Z,37.53
2018-11-10T13:56:37.315Z,24.43
2018-11-10T13:59:09.153Z,27.53
2018-11-10T14:01:39.085Z,24.80
2018-11-10T14:04:09.940Z,24.73
2018-11-10T14:06:39.600Z,24.90
2018-11-10T14:09:11.057Z,25.20
2018-11-10T14:11:42.518Z,29.30
2018-11-10T14:14:14.726Z,27.67
2018-11-10T14:16:45.472Z,25.27
2018-11-10T14:19:15.657Z,30.37
2018-11-10T14:21:45.473Z,26.07
2018-11-10T14:24:16.476Z,26.07
2018-11-10T14:26:45.873Z,31.17
2018-11-10T14:29:17.735Z,23.17
2018-11-10T14:31:49.602Z,29.73
2018-11-10T14:34:20.374Z,25.57
2018-11-10T14:36:50.971Z,20.37
2018-11-10T14:39:22.691Z,25.00
2018-11-10T14:41:52.530Z,25.30
2018-11-10T14:44:23.435Z,23.63
2018-11-10T14:46:56.286Z,28.50
2018-11-10T14:49:26.386Z,20.87
2018-11-10T14:52:00.423Z,32.17
2018-11-10T14:54:30.544Z,111.50
2018-11-10T14:57:01.598Z,73.67
2018-11-10T14:59:31.698Z,41.70
2018-11-10T15:02:03.768Z,30.97
2018-11-10T15:04:39.134Z,27.70
2018-11-10T15:07:09.534Z,18.87
2018-11-10T15:09:39.485Z,24.70
2018-11-10T15:12:10.777Z,25.07
2018-11-10T15:14:40.075Z,22.93
2018-11-10T15:17:11.760Z,20.70
2018-11-10T15:19:42.722Z,25.93
2018-11-10T15:22:13.656Z,22.83
2018-11-10T15:24:45.632Z,21.90
2018-11-10T15:27:16.686Z,26.40
2018-11-10T15:29:48.661Z,22.63
2018-11-10T15:32:20.211Z,40.87
2018-11-10T15:34:50.834Z,25.87
2018-11-10T15:37:21.519Z,21.90
2018-11-10T15:39:51.730Z,21.17
2018-11-10T15:42:22.715Z,23.20
2018-11-10T15:44:52.961Z,18.33
2018-11-10T15:47:23.646Z,20.27
2018-11-10T15:49:54.171Z,17.67
2018-11-10T15:52:23.578Z,21.17
2018-11-10T15:54:53.732Z,22.07
2018-11-10T15:57:25.626Z,20.97
2018-11-10T15:59:55.873Z,19.20
2018-11-10T16:02:25.263Z,19.07
2018-11-10T16:04:57.068Z,20.33
2018-11-10T16:07:26.439Z,23.50
2018-11-10T16:09:58.123Z,15.20
2018-11-10T16:12:28.007Z,16.27
2018-11-10T16:14:58.906Z,25.70
2018-11-10T16:17:28.854Z,22.23
2018-11-10T16:19:59.646Z,32.03
2018-11-10T16:22:29.847Z,35.53
2018-11-10T16:25:00.756Z,35.23
2018-11-10T16:27:30.883Z,27.10
2018-11-10T16:30:05.639Z,27.07
2018-11-10T16:32:36.075Z,24.90
2018-11-10T16:35:07.510Z,24.07
2018-11-10T16:37:39.278Z,20.90
2018-11-10T16:40:13.627Z,24.27
2018-11-10T16:42:44.478Z,27.80
2018-11-10T16:45:15.619Z,23.50
2018-11-10T16:47:46.067Z,25.93
2018-11-10T16:50:18.042Z,26.40
2018-11-10T16:52:55.506Z,24.00
2018-11-10T16:55:25.962Z,24.23
2018-11-10T16:57:59.070Z,22.63
2018-11-10T17:00:33.042Z,24.73
2018-11-10T17:03:06.271Z,21.57
2018-11-10T17:05:39.294Z,21.73
2018-11-10T17:08:11.106Z,21.57
2018-11-10T17:10:41.770Z,22.40
2018-11-10T17:13:12.090Z,22.43
2018-11-10T17:15:42.725Z,17.93
2018-11-10T17:18:13.048Z,24.73
2018-11-10T17:20:43.289Z,23.80
2018-11-10T17:23:19.956Z,20.50
2018-11-10T17:25:50.214Z,23.27
2018-11-10T17:28:21.021Z,22.23
2018-11-10T17:30:51.283Z,21.87
2018-11-10T17:33:22.398Z,23.70
2018-11-10T17:35:52.212Z,19.40
2018-11-10T17:38:22.236Z,16.57
2018-11-10T17:41:00.132Z,19.13
2018-11-10T17:43:38.299Z,22.57
2018-11-10T17:46:09.286Z,20.40
2018-11-10T17:48:40.275Z,20.50
2018-11-10T17:51:13.306Z,19.20
2018-11-10T17:53:43.418Z,20.20
2018-11-10T17:56:14.278Z,19.50
2018-11-10T17:58:46.450Z,18.47
2018-11-10T18:01:18.265Z,19.77
2018-11-10T18:03:53.823Z,18.50
2018-11-10T18:06:25.343Z,17.70
2018-11-10T18:08:55.688Z,22.67
2018-11-10T18:11:26.347Z,19.33
2018-11-10T18:13:56.391Z,22.80
2018-11-10T18:16:27.510Z,23.03
2018-11-10T18:18:58.716Z,26.27
2018-11-10T18:21:28.530Z,30.43
2018-11-10T18:23:59.604Z,24.83
2018-11-10T18:26:29.542Z,23.43
2018-11-10T18:29:00.692Z,20.50
2018-11-10T18:31:31.483Z,24.40
2018-11-10T18:34:02.466Z,21.13
2018-11-10T18:36:33.790Z,17.67
2018-11-10T18:39:05.270Z,24.93
2018-11-10T18:41:36.599Z,24.13
2018-11-10T18:44:09.712Z,21.70
2018-11-10T18:46:40.370Z,21.60
2018-11-10T18:49:14.375Z,18.87
2018-11-10T18:51:43.742Z,26.33
2018-11-10T18:54:15.020Z,26.60
2018-11-10T18:56:47.473Z,24.63
2018-11-10T18:59:18.570Z,23.90
2018-11-10T19:01:49.566Z,25.07
2018-11-10T19:04:19.576Z,27.67
2018-11-10T19:06:49.638Z,22.47
2018-11-10T19:09:21.302Z,28.53
2018-11-10T19:11:55.286Z,28.43
2018-11-10T19:14:28.491Z,30.77
2018-11-10T19:17:01.601Z,24.37
2018-11-10T19:19:32.815Z,23.60
2018-11-10T19:22:02.842Z,25.03
2018-11-10T19:24:34.778Z,26.00
2018-11-10T19:27:05.034Z,25.20
2018-11-10T19:29:34.829Z,20.63
2018-11-10T19:32:08.627Z,26.10
2018-11-10T19:34:38.739Z,22.93
2018-11-10T19:37:09.751Z,26.57
2018-11-10T19:39:42.948Z,25.47
2018-11-10T19:42:14.785Z,24.03
2018-11-10T19:44:45.453Z,22.47
2018-11-10T19:47:15.814Z,25.13
2018-11-10T19:49:47.170Z,25.17
2018-11-10T19:52:18.795Z,24.60
2018-11-10T19:54:48.510Z,23.43
2018-11-10T19:57:24.932Z,31.10
2018-11-10T19:59:54.930Z,34.47
2018-11-10T20:02:26.113Z,34.07
2018-11-10T20:04:56.033Z,29.77
2018-11-10T20:07:28.139Z,30.63
2018-11-10T20:10:00.175Z,30.87
2018-11-10T20:12:30.943Z,38.70
2018-11-10T20:15:01.036Z,41.07
2018-11-10T20:17:32.036Z,53.50
2018-11-10T20:20:02.047Z,62.33
2018-11-10T20:22:33.121Z,37.33
2018-11-10T20:25:02.884Z,39.30
2018-11-10T20:27:33.988Z,36.83
2018-11-10T20:30:06.860Z,37.17
2018-11-10T20:32:37.124Z,34.00
2018-11-10T20:41:08.369Z,31.77
2018-11-10T20:43:38.065Z,30.83
2018-11-10T20:46:09.243Z,25.37
2018-11-10T20:48:39.043Z,39.10
2018-11-10T20:51:12.240Z,45.47
2018-11-10T20:53:43.106Z,32.30
2018-11-10T20:56:13.300Z,33.53
2018-11-10T20:58:43.154Z,34.90
2018-11-10T21:01:16.870Z,29.20
2018-11-10T21:03:54.045Z,32.10
2018-11-10T21:06:24.313Z,27.50
2018-11-10T21:08:55.154Z,39.03
2018-11-10T21:11:25.251Z,46.10
2018-11-10T21:13:57.283Z,36.50
2018-11-10T21:16:29.384Z,35.70
2018-11-10T21:19:00.710Z,35.33
2018-11-10T21:21:30.666Z,34.47
2018-11-10T21:24:01.438Z,32.40
2018-11-10T21:26:33.163Z,36.10
2018-11-10T21:29:09.235Z,35.77
2018-11-10T21:31:38.516Z,36.20
2018-11-10T21:34:10.073Z,33.90
2018-11-10T21:36:39.366Z,38.73
2018-11-10T21:39:11.242Z,33.53
2018-11-10T21:41:40.947Z,38.90
2018-11-10T21:44:10.464Z,38.03
2018-11-10T21:46:39.978Z,37.03
2018-11-10T21:49:11.406Z,29.50
2018-11-10T21:51:40.726Z,39.33
2018-11-10T21:54:12.349Z,27.27
2018-11-10T21:56:43.339Z,31.53
2018-11-10T21:59:16.156Z,31.23
2018-11-10T22:01:47.694Z,34.37
2018-11-10T22:04:17.814Z,28.40
2018-11-10T22:06:48.334Z,26.50
2018-11-10T22:09:18.600Z,29.70
2018-11-10T22:11:49.845Z,28.10
2018-11-10T22:14:19.433Z,31.53
2018-11-10T22:16:51.374Z,25.77
2018-11-10T22:19:26.342Z,28.00
2018-11-10T22:22:03.284Z,34.10
2018-11-10T22:24:39.291Z,53.33
2018-11-10T22:27:16.357Z,50.37
2018-11-10T22:29:49.551Z,45.17
2018-11-10T22:32:20.439Z,45.00
2018-11-10T22:34:51.378Z,38.90
2018-11-10T22:37:21.603Z,30.73
2018-11-10T22:39:52.517Z,32.93
2018-11-10T22:42:23.471Z,25.17
2018-11-10T22:44:54.018Z,24.17
2018-11-10T22:47:24.642Z,25.13
2018-11-10T22:49:58.424Z,24.93
2018-11-10T22:52:28.654Z,26.40
2018-11-10T22:55:04.482Z,26.10
2018-11-10T22:57:40.179Z,23.90
2018-11-10T23:00:23.234Z,22.77
2018-11-10T23:02:56.077Z,23.43
2018-11-10T23:05:27.998Z,24.67
2018-11-10T23:07:58.331Z,22.13
2018-11-10T23:10:28.517Z,21.50
2018-11-10T23:12:58.645Z,23.53
2018-11-10T23:15:29.776Z,19.97
2018-11-10T23:18:02.714Z,21.00
2018-11-10T23:20:33.817Z,20.57
2018-11-10T23:23:04.490Z,20.60
2018-11-10T23:25:34.762Z,17.70
2018-11-10T23:28:05.119Z,20.30
2018-11-10T23:30:35.839Z,19.83
2018-11-10T23:33:06.125Z,18.37
2018-11-10T23:35:36.930Z,21.43
2018-11-10T23:38:09.828Z,21.53
2018-11-10T23:40:43.906Z,18.97
2018-11-10T23:43:14.065Z,19.73
2018-11-10T23:45:45.307Z,19.10
2018-11-10T23:48:16.800Z,19.77
2018-11-10T23:50:49.628Z,17.17
2018-11-10T23:53:19.151Z,16.00
2018-11-10T23:55:50.262Z,19.00
2018-11-10T23:58:20.980Z,18.23
